Marfret Guyane — FNMV — position and weather

sailwx.info

Track history (hours):
 
Tides and Currents Weather Stations Pressure Air Temp Water Temp Dewpoint Dewpoint Depression Visibility Wind Speed Wind Dir Waves Ship Positions

Marfret Guyane

Last reported at 2014-Aug-24 21:29 UTC. Time now 2014-Aug-28 23:19 UTC.
Position N 36°11' W 027°55'.

Length 170 m; draft 8 m.

Type: Ship (hazmat cat A). MMSI: 226324000.

Date/timePositionNaut miles runAvg speedWind from/ knotsBaromVisibWave heightAir tempDewpointWater temp
2014-Aug-24 21:29N 36°11' W 027°55'1718.4
2014-Aug-24 20:34N 36°20' W 027°37'2018.6
2014-Aug-24 19:30N 36°30' W 027°16'1818.9
2014-Aug-24 18:33N 36°40' W 026°57'1818.4
2014-Aug-24 17:33N 36°50' W 026°38'1918.5
2014-Aug-24 16:33N 36°60' W 026°19'1918.5
2014-Aug-24 15:33N 37°10' W 025°59'1918.8
2014-Aug-24 14:33N 37°20' W 025°39'1918.8
2014-Aug-24 13:33N 37°30' W 025°20'1818.4
2014-Aug-24 12:33N 37°40' W 024°60'1918.6
2014-Aug-24 11:33N 37°49' W 024°39'1818.2
2014-Aug-24 10:33N 38°00' W 024°21'1918.6
2014-Aug-24 09:33N 38°12' W 024°03'  
2014-Aug-21 14:16N 49°41' W 000°38'1419.5
2014-Aug-21 13:34N 49°35' W 000°18'1515.2
2014-Aug-21 12:34N 49°30' E 000°04'3 2.5
2014-Aug-21 11:34N 49°29' E 000°07'0 0.0
2014-Aug-21 10:34N 49°29' E 000°07'0 0.0
2014-Aug-21 09:34N 49°29' E 000°07'0 0.0
2014-Aug-21 08:34N 49°29' E 000°07'0 0.0
2014-Aug-21 07:34N 49°29' E 000°07'0 0.0
2014-Aug-21 06:28N 49°29' E 000°07'0 0.0
2014-Aug-21 05:34N 49°29' E 000°07'0 0.0
2014-Aug-21 04:34N 49°29' E 000°07'0 0.0
2014-Aug-21 03:31N 49°29' E 000°07'0 0.0
2014-Aug-21 02:28N 49°29' E 000°07'0 0.0
2014-Aug-21 01:31N 49°29' E 000°07'0 0.0
2014-Aug-21 00:31N 49°29' E 000°07'0 0.0
2014-Aug-20 23:31N 49°29' E 000°07'0 0.0
2014-Aug-20 22:31N 49°29' E 000°07'0 0.0
2014-Aug-20 21:31N 49°29' E 000°07'0 0.0
2014-Aug-20 20:31N 49°29' E 000°07'0 0.0
2014-Aug-20 19:31N 49°29' E 000°07'0 0.0
2014-Aug-20 18:31N 49°29' E 000°07'2 1.7
2014-Aug-20 17:28N 49°29' E 000°10'0 0.0
2014-Aug-20 16:28N 49°29' E 000°10'0 0.0
2014-Aug-20 15:31N 49°29' E 000°10'0 0.0
2014-Aug-20 14:31N 49°29' E 000°10'0 0.0
2014-Aug-20 13:31N 49°29' E 000°10'0 0.0
2014-Aug-20 12:31N 49°29' E 000°10'0 0.0
2014-Aug-20 11:31N 49°29' E 000°10'0 0.0
2014-Aug-20 10:25N 49°29' E 000°10'0 0.0
2014-Aug-20 09:31N 49°29' E 000°10'0 0.0
2014-Aug-20 08:31N 49°29' E 000°10'0 0.0
2014-Aug-20 07:31N 49°29' E 000°10'0 0.0
2014-Aug-20 06:28N 49°29' E 000°10'0 0.0
2014-Aug-20 05:31N 49°29' E 000°10'0 0.0
2014-Aug-20 04:31N 49°29' E 000°10'0 0.0
2014-Aug-20 03:31N 49°29' E 000°10'0 0.0
2014-Aug-20 02:31N 49°29' E 000°10'1 0.8
2014-Aug-20 01:33N 49°28' E 000°09'7 7.3
2014-Aug-20 00:33N 49°30' W 000°02'1 1.0
2014-Aug-19 23:33N 49°29' W 000°03'0 0.0
2014-Aug-19 22:30N 49°29' W 000°03'0 0.0
2014-Aug-19 21:27N 49°29' W 000°03'0 0.0
2014-Aug-19 20:30N 49°29' W 000°03'0 0.0
2014-Aug-19 19:33N 49°29' W 000°03'0 0.0
2014-Aug-19 18:34N 49°29' W 000°03'0 0.0
2014-Aug-19 17:33N 49°29' W 000°03'0 0.0
2014-Aug-19 16:31N 49°29' W 000°03'0 0.0
2014-Aug-19 15:31N 49°29' W 000°03'0 0.0
2014-Aug-19 14:34N 49°29' W 000°03'0 0.0
2014-Aug-19 13:30N 49°29' W 000°03'0 0.0
2014-Aug-19 12:33N 49°29' W 000°03'0 0.0
2014-Aug-19 11:33N 49°29' W 000°03'0 0.0
2014-Aug-19 10:33N 49°29' W 000°03'0 0.1
2014-Aug-19 09:30N 49°29' W 000°03'0 0.0
2014-Aug-19 08:34N 49°29' W 000°03'0 0.1
2014-Aug-19 07:30N 49°29' W 000°03'0 0.1
2014-Aug-19 06:24N 49°29' W 000°03'0 0.0
2014-Aug-19 05:30N 49°29' W 000°03'0 0.0
2014-Aug-19 04:33N 49°29' W 000°03'3 3.4
2014-Aug-19 03:33N 49°27' E 000°01'9 9.2
2014-Aug-19 02:33N 49°26' E 000°15'9 9.4
2014-Aug-19 01:33N 49°29' E 000°29'7 7.3
2014-Aug-19 00:33N 49°28' E 000°40'2 0.1
2014-Aug-17 12:33N 49°26' E 000°37'1010.3
2014-Aug-17 11:33N 49°26' E 000°22'1211.9
2014-Aug-17 10:33N 49°27' E 000°03'7 6.9
2014-Aug-17 09:34N 49°30' W 000°06'8 8.2
2014-Aug-17 08:33N 49°38' W 000°05'8 8.4
2014-Aug-17 07:33N 49°45' E 000°00'39 7.1
2014-Aug-17 02:04N 50°18' E 000°34'4 7.3
2014-Aug-17 01:28N 50°21' E 000°37'7 7.4
2014-Aug-17 00:33N 50°28' E 000°36'7 6.6
2014-Aug-16 23:33N 50°35' E 000°38'4 3.8
2014-Aug-16 22:34N 50°37' E 000°42'10 9.7
2014-Aug-16 21:33N 50°43' E 000°54'1111.0
2014-Aug-16 20:32N 50°50' E 001°08'1411.7
2014-Aug-16 19:20N 50°60' E 001°24'810.5
2014-Aug-16 18:33N 51°06' E 001°33'1313.5
2014-Aug-16 17:34N 51°19' E 001°36'1212.3
2014-Aug-16 16:33N 51°28' E 001°23'1616.4
2014-Aug-16 15:34N 51°29' E 000°56'1414.2
2014-Aug-16 14:34N 51°30' E 000°34'8 7.7
2014-Aug-16 13:33N 51°27' E 000°22'2 1.6
2014-Aug-16 12:33N 51°27' E 000°20'0 0.0
2014-Aug-16 11:34N 51°27' E 000°20'0 0.0
2014-Aug-16 10:34N 51°27' E 000°20'0 0.0
2014-Aug-16 09:33N 51°27' E 000°20'0 0.0
2014-Aug-16 08:33N 51°27' E 000°20'0 0.0
2014-Aug-16 07:33N 51°27' E 000°20'0 0.0
2014-Aug-16 06:33N 51°27' E 000°20'0 0.0
2014-Aug-16 05:33N 51°27' E 000°20'0 0.0
2014-Aug-16 04:34N 51°27' E 000°20'0 0.0
2014-Aug-16 03:33N 51°27' E 000°20'0 0.0
2014-Aug-16 02:33N 51°27' E 000°20'0 0.0
2014-Aug-16 01:33N 51°27' E 000°20'0 0.0
2014-Aug-16 00:34N 51°27' E 000°20'1 1.3
2014-Aug-15 23:33N 51°27' E 000°22'10 9.8
2014-Aug-15 22:34N 51°30' E 000°37'1211.7
2014-Aug-15 21:34N 51°29' E 000°56'1515.0
2014-Aug-15 20:33N 51°36' E 001°17'9 9.3
2014-Aug-15 19:34N 51°30' E 001°29'4 4.1
2014-Aug-15 18:34N 51°26' E 001°31'5 5.4
2014-Aug-15 17:33N 51°30' E 001°38'9 9.5
2014-Aug-15 16:33N 51°31' E 001°53'1110.9
2014-Aug-15 15:33N 51°36' E 002°08'2713.2
2014-Aug-15 13:32N 51°55' E 002°38'1313.3
2014-Aug-15 12:32N 52°02' E 002°56'1313.5
2014-Aug-15 11:33N 52°03' E 003°18'1413.4
2014-Aug-15 10:30N 52°03' E 003°41'1111.6
2014-Aug-15 09:33N 52°01' E 003°58'1312.6
2014-Aug-15 08:33N 51°54' E 004°16'5 5.1
2014-Aug-15 07:32N 51°53' E 004°24'0 0.0
2014-Aug-15 06:32N 51°53' E 004°24'0 0.0
2014-Aug-15 05:32N 51°53' E 004°24'0 0.0
2014-Aug-15 04:32N 51°53' E 004°24'0 0.0
2014-Aug-15 03:32N 51°53' E 004°24'0 0.0
2014-Aug-15 02:29N 51°53' E 004°24'0 0.0
2014-Aug-15 01:32N 51°53' E 004°24'0 0.0
2014-Aug-15 00:29N 51°53' E 004°24'0 0.0
2014-Aug-14 23:32N 51°53' E 004°24'0 0.0
2014-Aug-14 22:32N 51°53' E 004°24'0 0.0
2014-Aug-14 21:32N 51°53' E 004°24'  
Track history (hours):
 
Tides and Currents Weather Stations Pressure Air Temp Water Temp Dewpoint Dewpoint Depression Visibility Wind Speed Wind Dir Waves Ship Positions

Marfret Guyane

Last reported at 2014-Aug-24 21:29 UTC. Time now 2014-Aug-28 23:19 UTC.
Position N 36°11' W 027°55'.

Length 170 m; draft 8 m.

Type: Ship (hazmat cat A). MMSI: 226324000.

Date/timePositionNaut miles runAvg speedWind from/ knotsBaromVisibWave heightAir tempDewpointWater temp
2014-Aug-24 21:29N 36°11' W 027°55'1718.4
2014-Aug-24 20:34N 36°20' W 027°37'2018.6
2014-Aug-24 19:30N 36°30' W 027°16'1818.9
2014-Aug-24 18:33N 36°40' W 026°57'1818.4
2014-Aug-24 17:33N 36°50' W 026°38'1918.5
2014-Aug-24 16:33N 36°60' W 026°19'1918.5
2014-Aug-24 15:33N 37°10' W 025°59'1918.8
2014-Aug-24 14:33N 37°20' W 025°39'1918.8
2014-Aug-24 13:33N 37°30' W 025°20'1818.4
2014-Aug-24 12:33N 37°40' W 024°60'1918.6
2014-Aug-24 11:33N 37°49' W 024°39'1818.2
2014-Aug-24 10:33N 38°00' W 024°21'1918.6
2014-Aug-24 09:33N 38°12' W 024°03'  
2014-Aug-21 14:16N 49°41' W 000°38'1419.5
2014-Aug-21 13:34N 49°35' W 000°18'1515.2
2014-Aug-21 12:34N 49°30' E 000°04'3 2.5
2014-Aug-21 11:34N 49°29' E 000°07'0 0.0
2014-Aug-21 10:34N 49°29' E 000°07'0 0.0
2014-Aug-21 09:34N 49°29' E 000°07'0 0.0
2014-Aug-21 08:34N 49°29' E 000°07'0 0.0
2014-Aug-21 07:34N 49°29' E 000°07'0 0.0
2014-Aug-21 06:28N 49°29' E 000°07'0 0.0
2014-Aug-21 05:34N 49°29' E 000°07'0 0.0
2014-Aug-21 04:34N 49°29' E 000°07'0 0.0
2014-Aug-21 03:31N 49°29' E 000°07'0 0.0
2014-Aug-21 02:28N 49°29' E 000°07'0 0.0
2014-Aug-21 01:31N 49°29' E 000°07'0 0.0
2014-Aug-21 00:31N 49°29' E 000°07'0 0.0
2014-Aug-20 23:31N 49°29' E 000°07'0 0.0
2014-Aug-20 22:31N 49°29' E 000°07'0 0.0
2014-Aug-20 21:31N 49°29' E 000°07'0 0.0
2014-Aug-20 20:31N 49°29' E 000°07'0 0.0
2014-Aug-20 19:31N 49°29' E 000°07'0 0.0
2014-Aug-20 18:31N 49°29' E 000°07'2 1.7
2014-Aug-20 17:28N 49°29' E 000°10'0 0.0
2014-Aug-20 16:28N 49°29' E 000°10'0 0.0
2014-Aug-20 15:31N 49°29' E 000°10'0 0.0
2014-Aug-20 14:31N 49°29' E 000°10'0 0.0
2014-Aug-20 13:31N 49°29' E 000°10'0 0.0
2014-Aug-20 12:31N 49°29' E 000°10'0 0.0
2014-Aug-20 11:31N 49°29' E 000°10'0 0.0
2014-Aug-20 10:25N 49°29' E 000°10'0 0.0
2014-Aug-20 09:31N 49°29' E 000°10'0 0.0
2014-Aug-20 08:31N 49°29' E 000°10'0 0.0
2014-Aug-20 07:31N 49°29' E 000°10'0 0.0
2014-Aug-20 06:28N 49°29' E 000°10'0 0.0
2014-Aug-20 05:31N 49°29' E 000°10'0 0.0
2014-Aug-20 04:31N 49°29' E 000°10'0 0.0
2014-Aug-20 03:31N 49°29' E 000°10'0 0.0
2014-Aug-20 02:31N 49°29' E 000°10'1 0.8
2014-Aug-20 01:33N 49°28' E 000°09'7 7.3
2014-Aug-20 00:33N 49°30' W 000°02'1 1.0
2014-Aug-19 23:33N 49°29' W 000°03'0 0.0
2014-Aug-19 22:30N 49°29' W 000°03'0 0.0
2014-Aug-19 21:27N 49°29' W 000°03'0 0.0
2014-Aug-19 20:30N 49°29' W 000°03'0 0.0
2014-Aug-19 19:33N 49°29' W 000°03'0 0.0
2014-Aug-19 18:34N 49°29' W 000°03'0 0.0
2014-Aug-19 17:33N 49°29' W 000°03'0 0.0
2014-Aug-19 16:31N 49°29' W 000°03'0 0.0
2014-Aug-19 15:31N 49°29' W 000°03'0 0.0
2014-Aug-19 14:34N 49°29' W 000°03'0 0.0
2014-Aug-19 13:30N 49°29' W 000°03'0 0.0
2014-Aug-19 12:33N 49°29' W 000°03'0 0.0
2014-Aug-19 11:33N 49°29' W 000°03'0 0.0
2014-Aug-19 10:33N 49°29' W 000°03'0 0.1
2014-Aug-19 09:30N 49°29' W 000°03'0 0.0
2014-Aug-19 08:34N 49°29' W 000°03'0 0.1
2014-Aug-19 07:30N 49°29' W 000°03'0 0.1
2014-Aug-19 06:24N 49°29' W 000°03'0 0.0
2014-Aug-19 05:30N 49°29' W 000°03'0 0.0
2014-Aug-19 04:33N 49°29' W 000°03'3 3.4
2014-Aug-19 03:33N 49°27' E 000°01'9 9.2
2014-Aug-19 02:33N 49°26' E 000°15'9 9.4
2014-Aug-19 01:33N 49°29' E 000°29'7 7.3
2014-Aug-19 00:33N 49°28' E 000°40'2 0.1
2014-Aug-17 12:33N 49°26' E 000°37'1010.3
2014-Aug-17 11:33N 49°26' E 000°22'1211.9
2014-Aug-17 10:33N 49°27' E 000°03'7 6.9
2014-Aug-17 09:34N 49°30' W 000°06'8 8.2
2014-Aug-17 08:33N 49°38' W 000°05'8 8.4
2014-Aug-17 07:33N 49°45' E 000°00'39 7.1
2014-Aug-17 02:04N 50°18' E 000°34'4 7.3
2014-Aug-17 01:28N 50°21' E 000°37'7 7.4
2014-Aug-17 00:33N 50°28' E 000°36'7 6.6
2014-Aug-16 23:33N 50°35' E 000°38'4 3.8
2014-Aug-16 22:34N 50°37' E 000°42'10 9.7
2014-Aug-16 21:33N 50°43' E 000°54'1111.0
2014-Aug-16 20:32N 50°50' E 001°08'1411.7
2014-Aug-16 19:20N 50°60' E 001°24'810.5
2014-Aug-16 18:33N 51°06' E 001°33'1313.5
2014-Aug-16 17:34N 51°19' E 001°36'1212.3
2014-Aug-16 16:33N 51°28' E 001°23'1616.4
2014-Aug-16 15:34N 51°29' E 000°56'1414.2
2014-Aug-16 14:34N 51°30' E 000°34'8 7.7
2014-Aug-16 13:33N 51°27' E 000°22'2 1.6
2014-Aug-16 12:33N 51°27' E 000°20'0 0.0
2014-Aug-16 11:34N 51°27' E 000°20'0 0.0
2014-Aug-16 10:34N 51°27' E 000°20'0 0.0
2014-Aug-16 09:33N 51°27' E 000°20'0 0.0
2014-Aug-16 08:33N 51°27' E 000°20'0 0.0
2014-Aug-16 07:33N 51°27' E 000°20'0 0.0
2014-Aug-16 06:33N 51°27' E 000°20'0 0.0
2014-Aug-16 05:33N 51°27' E 000°20'0 0.0
2014-Aug-16 04:34N 51°27' E 000°20'0 0.0
2014-Aug-16 03:33N 51°27' E 000°20'0 0.0
2014-Aug-16 02:33N 51°27' E 000°20'0 0.0
2014-Aug-16 01:33N 51°27' E 000°20'0 0.0
2014-Aug-16 00:34N 51°27' E 000°20'1 1.3
2014-Aug-15 23:33N 51°27' E 000°22'10 9.8
2014-Aug-15 22:34N 51°30' E 000°37'1211.7
2014-Aug-15 21:34N 51°29' E 000°56'1515.0
2014-Aug-15 20:33N 51°36' E 001°17'9 9.3
2014-Aug-15 19:34N 51°30' E 001°29'4 4.1
2014-Aug-15 18:34N 51°26' E 001°31'5 5.4
2014-Aug-15 17:33N 51°30' E 001°38'9 9.5
2014-Aug-15 16:33N 51°31' E 001°53'1110.9
2014-Aug-15 15:33N 51°36' E 002°08'2713.2
2014-Aug-15 13:32N 51°55' E 002°38'1313.3
2014-Aug-15 12:32N 52°02' E 002°56'1313.5
2014-Aug-15 11:33N 52°03' E 003°18'1413.4
2014-Aug-15 10:30N 52°03' E 003°41'1111.6
2014-Aug-15 09:33N 52°01' E 003°58'1312.6
2014-Aug-15 08:33N 51°54' E 004°16'5 5.1
2014-Aug-15 07:32N 51°53' E 004°24'0 0.0
2014-Aug-15 06:32N 51°53' E 004°24'0 0.0
2014-Aug-15 05:32N 51°53' E 004°24'0 0.0
2014-Aug-15 04:32N 51°53' E 004°24'0 0.0
2014-Aug-15 03:32N 51°53' E 004°24'0 0.0
2014-Aug-15 02:29N 51°53' E 004°24'0 0.0
2014-Aug-15 01:32N 51°53' E 004°24'0 0.0
2014-Aug-15 00:29N 51°53' E 004°24'0 0.0
2014-Aug-14 23:32N 51°53' E 004°24'0 0.0
2014-Aug-14 22:32N 51°53' E 004°24'0 0.0
2014-Aug-14 21:32N 51°53' E 004°24'  

Dump ship's entire track history